New York, NY (10107)

6:14 PM EDT on March 22, 2017 (GMT -0400)
Central Park | | Change Station

Elev 89 ft 40.77 °N, 73.98 °W | Updated 23 minutes ago

Clear
Clear
31 °F
Feels Like 19 °F
N
20
Wind Variable Wind from NW
Gusts 34 mph

Today
High -- | Low -- °F
--% Chance of Precip.
Yesterday
High -- | Low -- °F
Precip. -- in
Pressure 30.26 in
Visibility 10.0 miles
Clouds Clear
Windchill 19 °F
Dew Point -3 °F
Humidity 23%
Rainfall 0.00 in
Snow Depth Not available.
6:55 AM 7:10 PM
Waning Crescent, 29% visible
METAR KNYC 222151Z AUTO 31017G30KT 10SM CLR M01/M19 A3028 RMK AO2 PK WND 31030/2151 SLP247 T10061194 $
Pressure 30.26 in
Visibility 10.0 miles
Clouds Clear
Windchill 19 °F
Dew Point -3 °F
Humidity 23%
Rainfall 0.00 in
Snow Depth Not available.
6:55 AM 7:10 PM
Waning Crescent, 29% visible
METAR KNYC 222151Z AUTO 31017G30KT 10SM CLR M01/M19 A3028 RMK AO2 PK WND 31030/2151 SLP247 T10061194 $

Get Severe Weather Alerts

Thanks for signing up!

Be on the lookout for a verification email in your inbox.

You'll start receiving the daily forecast at 8 AM.

×

10-Day Weather Forecast

Almanac

Astronomy

Mar. 22, 2017 Rise Set
Actual Time
Civil Twilight
Nautical Twilight
Astronomical Twilight
Moon
Length of Visible Light
Length of Day
Tomorrow will be .
, % of the Moon is Illuminated

Today's Extremes

State Highs State Lows

Community

WunderPhotos

Upload Photos

1,962,540 photos uploaded!

WunderBlog® & News

Nearby

Air Quality

  Air Quality AQ Index Pollutant
Not available.

Snow Depth

Station Depth Elevation

Earthquake Activity

City Distance Mag. Time & Date
Minimum magnitude displayed is 2.5.

Earthquake Activity

City Distance Mag. Time & Date
Minimum magnitude displayed is 2.5.

Coastal Water Temperatures

Place Temperature

Stations

Nearby Weather Stations

Station Location Temp. Windchill Dew Point Humidity Wind Precip. Elev Updated Type
                   

Watches & Warnings

There are currently no watches in effect.